Midway, AR (72651)

1:11 AM CDT on July 30, 2015 (GMT -0500)
APRSWXNET | | Change Station
CLOSE
Current Station
Personal Weather Station
Location: Gassville, AR
Elevation: 1115 ft
Nearby Weather Stations

Elev 1115 ft 36.26 °N, 92.49 °W | Updated 26 minutes ago

Mostly Cloudy
Mostly Cloudy
75 °F
Feels Like 73 °F
N
0
Wind Variable Wind from SSE
Gusts 0.0 mph

Today
High -- | Low -- °F
--% Chance of Precip.
Yesterday
High -- | Low -- °F
Precip. -- in
6:14 AM 8:17 PM
Waxing Gibbous, 98% visible
Pressure 30.09 in
Visibility 10.0 miles
Clouds Mostly Cloudy 4800 ft
Mostly Cloudy 5500 ft
Mostly Cloudy 7500 ft
Heat Index 73 °F
Dew Point 73 °F
Humidity 95%
Rainfall in
Snow Depth Not available.
UV 0 out of 12
Pollen 5.30 out of 12
Air Quality Not available.
Flu Activity Not available.
METAR KBPK 300553Z AUTO 05003KT 10SM BKN048 BKN055 BKN075 26/22 A3013 RMK AO2 SLP189 T02560222 10322 20250 403390239 53010

More Conditions Fewer Conditions

Pressure 30.09 in
Visibility 10.0 miles
Clouds Mostly Cloudy 4800 ft
Mostly Cloudy 5500 ft
Mostly Cloudy 7500 ft
Heat Index 73 °F
Dew Point 73 °F
Humidity 95%
Rainfall in
Snow Depth Not available.
UV 0 out of 12
Pollen 5.30 out of 12
Air Quality Not available.
Flu Activity Not available.
METAR KBPK 300553Z AUTO 05003KT 10SM BKN048 BKN055 BKN075 26/22 A3013 RMK AO2 SLP189 T02560222 10322 20250 403390239 53010

More Conditions Fewer Conditions

10-Day Weather Forecast

×

Almanac

Astronomy

Jul. 30, 2015 Rise Set
Actual Time
Civil Twilight
Nautical Twilight
Astronomical Twilight
Moon
Length of Visible Light
Length of Day
Tomorrow will be .
, % of the Moon is Illuminated

Today's Extremes

State Highs State Lows

Community

WunderPhotos

Upload Photos

1,842,312 photos uploaded!

WunderBlogs® & News

Nearby

Air Quality

  Air Quality AQ Index Pollutant
Not available.

Snow Depth

Station Depth Elevation

Earthquake Activity

City Distance Mag. Time & Date
Minimum magnitude displayed is 2.5.

Coastal Water Temperatures

Place Temperature

Stations

Nearby Weather Stations

Station Location Temp. Windchill Dew Point Humidity Wind Precip. Elev Updated Type